This is the latest recevied weather packets stored in our database for station/object KZ4HT-13. If no packets are shown the sender has not sent any weather packets the latest 10 day(s).
| Time | Temp. | Humidity | Pressure | Rain* | Wind** | Luminosity | Snow |
|---|---|---|---|---|---|---|---|
| 1777411847 | 28.89° C | 55% | 1017.9 hPa | 0 mm | - | - | - |
| 1777411225 | 29.44° C | 54% | 1018 hPa | 0 mm | - | - | - |
| 1777405270 | 29.44° C | 52% | 1019.3 hPa | 0 mm | - | - | - |
| 1777399256 | 30.56° C | 51% | 1019.8 hPa | 0 mm | - | - | - |
| 1777398674 | 29.44° C | 57% | 1019.7 hPa | 0 mm | - | - | - |
| 1777386675 | 24.44° C | 76% | 1020.9 hPa | 0 mm | - | - | - |
| 1777384269 | 23.33° C | 80% | 1020.5 hPa | 0 mm | - | - | - |
| 1777383668 | 23.33° C | 81% | 1020.6 hPa | 0 mm | - | - | - |
| 1777381863 | 22.22° C | 85% | 1020.5 hPa | 0 mm | - | - | - |
| 1777377653 | 19.44° C | 94% | 1020 hPa | 0 mm | - | - | - |
| 1777375851 | 19.44° C | 95% | 1019.7 hPa | 0 mm | - | - | - |
| 1777370433 | 18.89° C | 96% | 1018.9 hPa | 0 mm | - | - | - |
| 1777365617 | 17.78° C | 96% | 1018.6 hPa | 0 mm | - | - | - |
| 1777365075 | 17.78° C | 96% | 1018.5 hPa | 0 mm | - | - | - |
| 1777363893 | 17.78° C | 95% | 1018.6 hPa | 0 mm | - | - | - |
| 1777362066 | 18.33° C | 94% | 1018.7 hPa | 0 mm | - | - | - |
| 1777360860 | 18.89° C | 94% | 1018.8 hPa | 0 mm | - | - | - |
| 1777356645 | 18.89° C | 92% | 1019.4 hPa | 0 mm | - | - | - |
| 1777354836 | 19.44° C | 90% | 1019.6 hPa | 0 mm | - | - | - |
| 1777350621 | 20.56° C | 86% | 1019.8 hPa | 0 mm | - | - | - |
| 1777349417 | 21.11° C | 85% | 1019.9 hPa | 0 mm | - | - | - |
| 1777348875 | 21.11° C | 84% | 1019.8 hPa | 0 mm | - | - | - |
| 1777347673 | 21.11° C | 83% | 1019.9 hPa | 0 mm | - | - | - |
| 1777345866 | 21.67° C | 82% | 1019.9 hPa | 0 mm | - | - | - |
| 1777344662 | 21.67° C | 82% | 1019.7 hPa | 0 mm | - | - | - |
* Rain since midnight (hover to see other rain measurements)
** Current wind speed in m/s (hover to see current wind gust speed)